sensor_id;sensor_type;location;lat;lon;timestamp;pressure;altitude;pressure_sealevel;temperature;humidity
22755;BME280;11544;42.020;23.094;2023-02-28T00:01:25;97673.13;;;10.65;100.00
22755;BME280;11544;42.020;23.094;2023-02-28T00:03:53;97668.81;;;10.33;100.00
22755;BME280;11544;42.020;23.094;2023-02-28T00:06:20;97668.03;;;10.60;100.00
22755;BME280;11544;42.020;23.094;2023-02-28T00:08:47;97670.91;;;10.83;100.00
22755;BME280;11544;42.020;23.094;2023-02-28T00:11:15;97664.22;;;10.72;100.00
22755;BME280;11544;42.020;23.094;2023-02-28T00:13:44;97660.69;;;10.11;100.00
22755;BME280;11544;42.020;23.094;2023-02-28T00:16:18;97659.09;;;10.40;100.00
22755;BME280;11544;42.020;23.094;2023-02-28T00:18:46;97657.34;;;10.06;100.00
22755;BME280;11544;42.020;23.094;2023-02-28T00:21:15;97662.41;;;10.12;100.00
22755;BME280;11544;42.020;23.094;2023-02-28T00:23:42;97653.88;;;10.40;100.00
22755;BME280;11544;42.020;23.094;2023-02-28T00:26:09;97654.56;;;9.79;100.00
22755;BME280;11544;42.020;23.094;2023-02-28T00:28:36;97659.03;;;9.74;100.00
22755;BME280;11544;42.020;23.094;2023-02-28T00:31:03;97671.50;;;9.95;100.00
22755;BME280;11544;42.020;23.094;2023-02-28T00:33:30;97668.88;;;9.97;100.00
22755;BME280;11544;42.020;23.094;2023-02-28T00:36:05;97669.16;;;10.19;100.00
22755;BME280;11544;42.020;23.094;2023-02-28T00:38:33;97662.31;;;10.15;100.00
22755;BME280;11544;42.020;23.094;2023-02-28T00:41:01;97669.88;;;10.26;100.00
22755;BME280;11544;42.020;23.094;2023-02-28T00:43:36;97656.50;;;10.05;100.00
22755;BME280;11544;42.020;23.094;2023-02-28T00:46:04;97660.53;;;10.17;100.00
22755;BME280;11544;42.020;23.094;2023-02-28T00:48:32;97667.63;;;10.12;100.00
22755;BME280;11544;42.020;23.094;2023-02-28T00:50:59;97659.88;;;9.74;100.00
22755;BME280;11544;42.020;23.094;2023-02-28T00:53:50;97657.06;;;9.84;100.00
22755;BME280;11544;42.020;23.094;2023-02-28T00:56:17;97666.69;;;9.80;100.00
22755;BME280;11544;42.020;23.094;2023-02-28T00:58:44;97660.72;;;9.77;100.00
22755;BME280;11544;42.020;23.094;2023-02-28T01:01:11;97661.44;;;9.82;100.00
22755;BME280;11544;42.020;23.094;2023-02-28T01:03:38;97660.59;;;9.81;100.00
22755;BME280;11544;42.020;23.094;2023-02-28T01:06:06;97655.19;;;9.89;100.00
22755;BME280;11544;42.020;23.094;2023-02-28T01:08:33;97658.44;;;9.63;100.00
22755;BME280;11544;42.020;23.094;2023-02-28T01:11:11;97657.06;;;9.84;100.00
22755;BME280;11544;42.020;23.094;2023-02-28T01:13:39;97649.28;;;9.46;100.00
22755;BME280;11544;42.020;23.094;2023-02-28T01:16:06;97651.06;;;9.80;100.00
22755;BME280;11544;42.020;23.094;2023-02-28T01:18:34;97660.31;;;9.58;100.00
22755;BME280;11544;42.020;23.094;2023-02-28T01:21:10;97651.66;;;9.57;100.00
22755;BME280;11544;42.020;23.094;2023-02-28T01:23:38;97654.53;;;9.45;100.00
22755;BME280;11544;42.020;23.094;2023-02-28T01:26:10;97647.41;;;9.53;100.00
22755;BME280;11544;42.020;23.094;2023-02-28T01:28:39;97640.34;;;9.21;100.00
22755;BME280;11544;42.020;23.094;2023-02-28T01:31:06;97639.59;;;9.16;100.00
22755;BME280;11544;42.020;23.094;2023-02-28T01:33:35;97646.59;;;9.14;100.00
22755;BME280;11544;42.020;23.094;2023-02-28T01:36:04;97639.72;;;9.11;100.00
22755;BME280;11544;42.020;23.094;2023-02-28T01:38:33;97639.81;;;9.06;100.00
22755;BME280;11544;42.020;23.094;2023-02-28T01:41:00;97636.28;;;9.09;100.00
22755;BME280;11544;42.020;23.094;2023-02-28T01:43:32;97644.50;;;9.28;100.00
22755;BME280;11544;42.020;23.094;2023-02-28T01:46:46;97649.59;;;8.95;100.00
22755;BME280;11544;42.020;23.094;2023-02-28T01:49:18;97653.16;;;8.91;100.00
22755;BME280;11544;42.020;23.094;2023-02-28T01:52:12;97656.69;;;8.88;100.00
22755;BME280;11544;42.020;23.094;2023-02-28T01:55:46;97654.38;;;9.14;100.00
22755;BME280;11544;42.020;23.094;2023-02-28T01:58:36;97659.41;;;8.82;100.00
22755;BME280;11544;42.020;23.094;2023-02-28T02:04:50;97670.28;;;9.01;100.00
22755;BME280;11544;42.020;23.094;2023-02-28T02:07:33;97675.41;;;9.04;100.00
22755;BME280;11544;42.020;23.094;2023-02-28T02:13:32;97673.13;;;9.28;100.00
22755;BME280;11544;42.020;23.094;2023-02-28T02:19:46;97670.63;;;9.23;100.00
22755;BME280;11544;42.020;23.094;2023-02-28T02:39:21;97685.56;;;8.75;100.00
22755;BME280;11544;42.020;23.094;2023-02-28T02:42:05;97683.84;;;8.74;100.00
22755;BME280;11544;42.020;23.094;2023-02-28T02:44:46;97686.69;;;9.03;100.00
22755;BME280;11544;42.020;23.094;2023-02-28T02:47:17;97687.53;;;9.04;100.00
22755;BME280;11544;42.020;23.094;2023-02-28T02:49:55;97690.47;;;9.29;100.00
22755;BME280;11544;42.020;23.094;2023-02-28T02:52:32;97690.16;;;9.04;100.00
22755;BME280;11544;42.020;23.094;2023-02-28T02:55:03;97699.13;;;8.89;100.00
22755;BME280;11544;42.020;23.094;2023-02-28T02:57:51;97703.81;;;9.14;100.00
22755;BME280;11544;42.020;23.094;2023-02-28T03:00:55;97702.09;;;8.72;100.00
22755;BME280;11544;42.020;23.094;2023-02-28T03:03:24;97697.91;;;8.63;100.00
22755;BME280;11544;42.020;23.094;2023-02-28T03:05:59;97702.72;;;8.40;100.00
22755;BME280;11544;42.020;23.094;2023-02-28T03:08:29;97705.38;;;8.34;100.00
22755;BME280;11544;42.020;23.094;2023-02-28T03:11:03;97707.97;;;8.34;100.00
22755;BME280;11544;42.020;23.094;2023-02-28T03:21:34;97710.34;;;8.47;100.00
22755;BME280;11544;42.020;23.094;2023-02-28T03:24:08;97711.28;;;8.88;100.00
22755;BME280;11544;42.020;23.094;2023-02-28T03:26:42;97715.50;;;8.94;100.00
22755;BME280;11544;42.020;23.094;2023-02-28T03:29:28;97716.25;;;8.99;100.00
22755;BME280;11544;42.020;23.094;2023-02-28T03:32:21;97719.59;;;9.06;100.00
22755;BME280;11544;42.020;23.094;2023-02-28T03:34:57;97721.34;;;9.05;100.00
22755;BME280;11544;42.020;23.094;2023-02-28T03:37:28;97722.25;;;8.59;100.00
22755;BME280;11544;42.020;23.094;2023-02-28T03:40:01;97718.69;;;8.65;100.00
22755;BME280;11544;42.020;23.094;2023-02-28T03:42:31;97717.13;;;8.55;100.00
22755;BME280;11544;42.020;23.094;2023-02-28T03:45:04;97723.63;;;8.79;100.00
22755;BME280;11544;42.020;23.094;2023-02-28T03:50:27;97726.84;;;8.45;100.00
22755;BME280;11544;42.020;23.094;2023-02-28T03:53:13;97729.28;;;8.54;100.00
22755;BME280;11544;42.020;23.094;2023-02-28T03:55:47;97730.59;;;8.77;100.00
22755;BME280;11544;42.020;23.094;2023-02-28T03:58:24;97739.41;;;8.69;100.00
22755;BME280;11544;42.020;23.094;2023-02-28T04:01:00;97737.81;;;9.04;100.00
22755;BME280;11544;42.020;23.094;2023-02-28T04:03:38;97727.59;;;8.95;100.00
22755;BME280;11544;42.020;23.094;2023-02-28T04:06:08;97732.66;;;8.59;100.00
22755;BME280;11544;42.020;23.094;2023-02-28T04:08:39;97729.81;;;8.72;100.00
22755;BME280;11544;42.020;23.094;2023-02-28T04:11:15;97730.63;;;8.75;100.00
22755;BME280;11544;42.020;23.094;2023-02-28T04:13:44;97737.72;;;9.09;100.00
22755;BME280;11544;42.020;23.094;2023-02-28T04:16:13;97740.16;;;8.75;100.00
22755;BME280;11544;42.020;23.094;2023-02-28T04:18:57;97733.22;;;8.74;100.00
22755;BME280;11544;42.020;23.094;2023-02-28T04:21:29;97731.16;;;8.91;100.00
22755;BME280;11544;42.020;23.094;2023-02-28T04:23:57;97740.41;;;8.62;100.00
22755;BME280;11544;42.020;23.094;2023-02-28T04:26:31;97726.00;;;8.88;100.00
22755;BME280;11544;42.020;23.094;2023-02-28T04:28:59;97730.34;;;8.87;100.00
22755;BME280;11544;42.020;23.094;2023-02-28T04:31:27;97736.66;;;8.76;100.00
22755;BME280;11544;42.020;23.094;2023-02-28T04:33:54;97737.50;;;8.78;100.00
22755;BME280;11544;42.020;23.094;2023-02-28T04:36:22;97735.59;;;8.39;100.00
22755;BME280;11544;42.020;23.094;2023-02-28T04:38:50;97735.03;;;8.22;100.00
22755;BME280;11544;42.020;23.094;2023-02-28T04:41:17;97745.78;;;8.53;100.00
22755;BME280;11544;42.020;23.094;2023-02-28T04:43:44;97746.94;;;8.34;100.00
22755;BME280;11544;42.020;23.094;2023-02-28T04:46:11;97742.56;;;8.36;100.00
22755;BME280;11544;42.020;23.094;2023-02-28T04:48:39;97745.81;;;8.50;100.00
22755;BME280;11544;42.020;23.094;2023-02-28T04:51:11;97740.44;;;8.59;100.00
22755;BME280;11544;42.020;23.094;2023-02-28T04:53:39;97742.53;;;8.39;100.00
22755;BME280;11544;42.020;23.094;2023-02-28T04:56:08;97744.72;;;8.62;100.00
22755;BME280;11544;42.020;23.094;2023-02-28T04:58:36;97753.28;;;8.19;100.00
22755;BME280;11544;42.020;23.094;2023-02-28T05:01:14;97755.50;;;8.42;100.00
22755;BME280;11544;42.020;23.094;2023-02-28T05:03:43;97768.94;;;8.65;100.00
22755;BME280;11544;42.020;23.094;2023-02-28T05:06:11;97769.59;;;8.77;100.00
22755;BME280;11544;42.020;23.094;2023-02-28T05:08:38;97768.41;;;8.93;100.00
22755;BME280;11544;42.020;23.094;2023-02-28T05:11:15;97772.78;;;8.91;100.00
22755;BME280;11544;42.020;23.094;2023-02-28T05:13:43;97775.56;;;8.80;100.00
22755;BME280;11544;42.020;23.094;2023-02-28T05:16:10;97775.13;;;8.57;100.00
22755;BME280;11544;42.020;23.094;2023-02-28T05:18:37;97780.50;;;8.49;100.00
22755;BME280;11544;42.020;23.094;2023-02-28T05:21:05;97783.94;;;8.50;100.00
22755;BME280;11544;42.020;23.094;2023-02-28T05:23:32;97779.66;;;8.47;100.00
22755;BME280;11544;42.020;23.094;2023-02-28T05:25:59;97786.22;;;8.66;100.00
22755;BME280;11544;42.020;23.094;2023-02-28T05:28:26;97797.22;;;8.81;100.00
22755;BME280;11544;42.020;23.094;2023-02-28T05:30:53;97804.25;;;8.76;100.00
22755;BME280;11544;42.020;23.094;2023-02-28T05:33:20;97801.88;;;9.08;100.00
22755;BME280;11544;42.020;23.094;2023-02-28T05:35:46;97804.81;;;8.93;100.00
22755;BME280;11544;42.020;23.094;2023-02-28T05:38:14;97810.44;;;8.17;100.00
22755;BME280;11544;42.020;23.094;2023-02-28T05:40:40;97805.38;;;9.07;100.00
22755;BME280;11544;42.020;23.094;2023-02-28T05:43:10;97796.38;;;8.80;100.00
22755;BME280;11544;42.020;23.094;2023-02-28T05:45:37;97801.47;;;8.85;100.00
22755;BME280;11544;42.020;23.094;2023-02-28T05:48:04;97814.81;;;9.13;100.00
22755;BME280;11544;42.020;23.094;2023-02-28T05:50:31;97808.66;;;9.17;100.00
22755;BME280;11544;42.020;23.094;2023-02-28T05:52:58;97809.59;;;9.13;100.00
22755;BME280;11544;42.020;23.094;2023-02-28T05:55:28;97811.63;;;8.99;100.00
22755;BME280;11544;42.020;23.094;2023-02-28T05:57:55;97812.13;;;9.16;100.00
22755;BME280;11544;42.020;23.094;2023-02-28T06:00:22;97814.88;;;9.10;100.00
22755;BME280;11544;42.020;23.094;2023-02-28T06:02:49;97810.94;;;8.90;100.00
22755;BME280;11544;42.020;23.094;2023-02-28T06:05:17;97812.09;;;9.18;100.00
22755;BME280;11544;42.020;23.094;2023-02-28T06:07:44;97814.81;;;9.11;100.00
22755;BME280;11544;42.020;23.094;2023-02-28T06:10:12;97810.25;;;9.23;100.00
22755;BME280;11544;42.020;23.094;2023-02-28T06:12:39;97816.56;;;9.11;100.00
22755;BME280;11544;42.020;23.094;2023-02-28T06:15:17;97816.84;;;8.97;100.00
22755;BME280;11544;42.020;23.094;2023-02-28T06:17:44;97820.44;;;8.90;100.00
22755;BME280;11544;42.020;23.094;2023-02-28T06:20:12;97824.28;;;9.16;100.00
22755;BME280;11544;42.020;23.094;2023-02-28T06:22:44;97824.75;;;9.35;100.00
22755;BME280;11544;42.020;23.094;2023-02-28T06:25:11;97833.97;;;9.49;100.00
22755;BME280;11544;42.020;23.094;2023-02-28T06:27:38;97828.94;;;9.42;100.00
22755;BME280;11544;42.020;23.094;2023-02-28T06:30:07;97833.78;;;9.60;100.00
22755;BME280;11544;42.020;23.094;2023-02-28T06:32:34;97836.56;;;9.51;100.00
22755;BME280;11544;42.020;23.094;2023-02-28T06:35:02;97834.41;;;9.31;100.00
22755;BME280;11544;42.020;23.094;2023-02-28T06:37:31;97845.50;;;8.94;100.00
22755;BME280;11544;42.020;23.094;2023-02-28T06:39:58;97846.03;;;9.11;100.00
22755;BME280;11544;42.020;23.094;2023-02-28T06:42:31;97846.91;;;9.12;100.00
22755;BME280;11544;42.020;23.094;2023-02-28T06:44:59;97845.25;;;9.08;100.00
22755;BME280;11544;42.020;23.094;2023-02-28T06:47:25;97837.28;;;9.16;100.00
22755;BME280;11544;42.020;23.094;2023-02-28T06:49:55;97852.97;;;9.11;100.00
22755;BME280;11544;42.020;23.094;2023-02-28T06:52:25;97842.31;;;9.25;100.00
22755;BME280;11544;42.020;23.094;2023-02-28T06:54:52;97842.41;;;9.62;100.00
22755;BME280;11544;42.020;23.094;2023-02-28T06:57:30;97834.03;;;9.88;100.00
22755;BME280;11544;42.020;23.094;2023-02-28T06:59:59;97845.72;;;10.47;100.00
22755;BME280;11544;42.020;23.094;2023-02-28T07:02:27;97829.16;;;10.48;100.00
22755;BME280;11544;42.020;23.094;2023-02-28T07:04:54;97831.34;;;10.29;100.00
22755;BME280;11544;42.020;23.094;2023-02-28T16:04:28;97556.66;;;12.93;100.00
22755;BME280;11544;42.020;23.094;2023-02-28T16:07:04;97561.03;;;12.92;100.00
22755;BME280;11544;42.020;23.094;2023-02-28T16:09:35;97563.28;;;12.80;100.00
22755;BME280;11544;42.020;23.094;2023-02-28T16:12:04;97569.59;;;12.96;100.00
22755;BME280;11544;42.020;23.094;2023-02-28T16:14:32;97571.38;;;12.96;100.00
22755;BME280;11544;42.020;23.094;2023-02-28T16:17:07;97566.06;;;12.75;100.00
22755;BME280;11544;42.020;23.094;2023-02-28T16:19:40;97568.25;;;12.64;100.00
22755;BME280;11544;42.020;23.094;2023-02-28T16:22:09;97563.72;;;12.91;100.00
22755;BME280;11544;42.020;23.094;2023-02-28T16:24:42;97563.94;;;12.85;100.00
22755;BME280;11544;42.020;23.094;2023-02-28T16:27:21;97547.81;;;13.18;100.00
22755;BME280;11544;42.020;23.094;2023-02-28T16:29:55;97556.44;;;12.99;100.00
22755;BME280;11544;42.020;23.094;2023-02-28T16:32:25;97556.06;;;13.30;100.00
22755;BME280;11544;42.020;23.094;2023-02-28T16:34:54;97551.66;;;13.09;100.00
